sensor_id;sensor_type;location;lat;lon;timestamp;pressure;altitude;pressure_sealevel;temperature;humidity
72428;BME280;60419;48.880;18.036;2023-05-09T00:00:26;99885.66;;;7.15;58.63
72428;BME280;60419;48.880;18.036;2023-05-09T00:03:11;99868.63;;;6.94;59.91
72428;BME280;60419;48.880;18.036;2023-05-09T00:05:58;99882.75;;;7.22;59.68
72428;BME280;60419;48.880;18.036;2023-05-09T00:08:43;99879.19;;;7.11;59.51
72428;BME280;60419;48.880;18.036;2023-05-09T00:11:29;99874.63;;;7.11;59.36
72428;BME280;60419;48.880;18.036;2023-05-09T00:14:14;99876.47;;;6.58;61.42
72428;BME280;60419;48.880;18.036;2023-05-09T00:16:59;99881.84;;;7.01;60.14
72428;BME280;60419;48.880;18.036;2023-05-09T00:19:45;99870.03;;;7.07;60.32
72428;BME280;60419;48.880;18.036;2023-05-09T00:22:30;99860.34;;;7.01;59.80
72428;BME280;60419;48.880;18.036;2023-05-09T00:25:15;99876.25;;;7.18;59.67
72428;BME280;60419;48.880;18.036;2023-05-09T00:28:01;99874.34;;;7.13;59.68
72428;BME280;60419;48.880;18.036;2023-05-09T00:30:46;99874.34;;;7.13;59.04
72428;BME280;60419;48.880;18.036;2023-05-09T00:33:32;99873.34;;;7.24;59.38
72428;BME280;60419;48.880;18.036;2023-05-09T00:36:17;99877.97;;;7.39;58.52
72428;BME280;60419;48.880;18.036;2023-05-09T00:39:02;99875.75;;;7.26;58.48
72428;BME280;60419;48.880;18.036;2023-05-09T00:41:48;99865.81;;;7.21;59.10
72428;BME280;60419;48.880;18.036;2023-05-09T00:44:33;99842.91;;;7.08;59.70
72428;BME280;60419;48.880;18.036;2023-05-09T00:47:21;99859.59;;;7.16;58.95
72428;BME280;60419;48.880;18.036;2023-05-09T00:50:07;99855.06;;;7.31;58.95
72428;BME280;60419;48.880;18.036;2023-05-09T00:52:53;99850.47;;;7.17;59.57
72428;BME280;60419;48.880;18.036;2023-05-09T00:55:38;99855.06;;;7.21;59.29
72428;BME280;60419;48.880;18.036;2023-05-09T00:58:24;99842.28;;;6.38;61.90
72428;BME280;60419;48.880;18.036;2023-05-09T01:01:10;99857.16;;;6.56;61.75
72428;BME280;60419;48.880;18.036;2023-05-09T01:03:56;99868.75;;;6.67;61.00
72428;BME280;60419;48.880;18.036;2023-05-09T01:10:01;99858.31;;;6.01;63.16
72428;BME280;60419;48.880;18.036;2023-05-09T01:12:57;99850.97;;;6.61;61.61
72428;BME280;60419;48.880;18.036;2023-05-09T01:15:52;99851.00;;;6.66;61.35
72428;BME280;60419;48.880;18.036;2023-05-09T01:18:43;99851.38;;;6.37;62.14
72428;BME280;60419;48.880;18.036;2023-05-09T01:21:30;99855.56;;;5.91;63.29
72428;BME280;60419;48.880;18.036;2023-05-09T01:27:39;99850.97;;;5.86;62.88
72428;BME280;60419;48.880;18.036;2023-05-09T01:30:30;99849.53;;;6.06;62.95
72428;BME280;60419;48.880;18.036;2023-05-09T01:33:19;99855.78;;;5.84;63.28
72428;BME280;60419;48.880;18.036;2023-05-09T01:36:11;99852.47;;;5.77;63.33
72428;BME280;60419;48.880;18.036;2023-05-09T01:38:56;99851.59;;;5.98;62.86
72428;BME280;60419;48.880;18.036;2023-05-09T01:41:42;99837.31;;;5.33;63.78
72428;BME280;60419;48.880;18.036;2023-05-09T01:44:32;99856.59;;;5.57;63.77
72428;BME280;60419;48.880;18.036;2023-05-09T01:47:18;99860.44;;;4.96;65.60
72428;BME280;60419;48.880;18.036;2023-05-09T01:50:04;99850.94;;;4.88;65.54
72428;BME280;60419;48.880;18.036;2023-05-09T01:52:52;99858.94;;;5.27;64.45
72428;BME280;60419;48.880;18.036;2023-05-09T01:55:39;99853.69;;;5.37;63.91
72428;BME280;60419;48.880;18.036;2023-05-09T01:58:26;99852.59;;;5.11;64.61
72428;BME280;60419;48.880;18.036;2023-05-09T02:01:12;99855.00;;;5.12;65.45
72428;BME280;60419;48.880;18.036;2023-05-09T02:03:59;99855.81;;;5.35;64.43
72428;BME280;60419;48.880;18.036;2023-05-09T02:06:45;99845.56;;;5.05;64.82
72428;BME280;60419;48.880;18.036;2023-05-09T02:09:35;99863.38;;;5.65;63.88
72428;BME280;60419;48.880;18.036;2023-05-09T02:12:22;99858.34;;;5.74;63.27
72428;BME280;60419;48.880;18.036;2023-05-09T02:15:08;99862.31;;;5.98;62.53
72428;BME280;60419;48.880;18.036;2023-05-09T02:17:54;99857.59;;;5.78;62.27
72428;BME280;60419;48.880;18.036;2023-05-09T02:20:39;99829.91;;;5.68;62.67
72428;BME280;60419;48.880;18.036;2023-05-09T02:23:25;99857.84;;;5.50;63.44
72428;BME280;60419;48.880;18.036;2023-05-09T02:26:10;99865.41;;;5.31;64.32
72428;BME280;60419;48.880;18.036;2023-05-09T02:28:57;99839.81;;;5.18;65.09
72428;BME280;60419;48.880;18.036;2023-05-09T02:31:44;99854.84;;;5.46;64.22
72428;BME280;60419;48.880;18.036;2023-05-09T02:34:31;99855.63;;;5.20;64.85
72428;BME280;60419;48.880;18.036;2023-05-09T02:37:17;99820.16;;;4.90;64.59
72428;BME280;60419;48.880;18.036;2023-05-09T02:40:05;99864.41;;;5.15;64.56
72428;BME280;60419;48.880;18.036;2023-05-09T02:42:53;99850.53;;;5.18;64.38
72428;BME280;60419;48.880;18.036;2023-05-09T02:45:38;99855.13;;;5.45;64.24
72428;BME280;60419;48.880;18.036;2023-05-09T02:48:24;99854.44;;;5.54;63.29
72428;BME280;60419;48.880;18.036;2023-05-09T02:51:09;99853.47;;;5.66;63.23
72428;BME280;60419;48.880;18.036;2023-05-09T02:53:55;99830.88;;;5.34;64.24
72428;BME280;60419;48.880;18.036;2023-05-09T02:56:41;99854.84;;;5.46;63.81
72428;BME280;60419;48.880;18.036;2023-05-09T02:59:26;99851.44;;;4.85;65.66
72428;BME280;60419;48.880;18.036;2023-05-09T03:02:11;99849.84;;;4.67;66.78
72428;BME280;60419;48.880;18.036;2023-05-09T03:04:57;99857.13;;;4.72;66.68
72428;BME280;60419;48.880;18.036;2023-05-09T03:07:43;99862.88;;;4.97;65.61
72428;BME280;60419;48.880;18.036;2023-05-09T03:10:28;99864.56;;;4.47;67.23
72428;BME280;60419;48.880;18.036;2023-05-09T03:13:14;99863.25;;;5.06;65.62
72428;BME280;60419;48.880;18.036;2023-05-09T03:15:59;99870.72;;;4.87;65.76
72428;BME280;60419;48.880;18.036;2023-05-09T03:18:45;99871.81;;;4.69;66.16
72428;BME280;60419;48.880;18.036;2023-05-09T03:21:30;99867.84;;;4.55;67.35
72428;BME280;60419;48.880;18.036;2023-05-09T03:24:16;99871.53;;;4.87;66.35
72428;BME280;60419;48.880;18.036;2023-05-09T03:27:01;99864.53;;;5.25;64.57
72428;BME280;60419;48.880;18.036;2023-05-09T03:29:46;99869.88;;;5.25;65.19
72428;BME280;60419;48.880;18.036;2023-05-09T03:32:32;99867.72;;;5.22;64.71
72428;BME280;60419;48.880;18.036;2023-05-09T03:35:17;99870.94;;;5.46;64.36
72428;BME280;60419;48.880;18.036;2023-05-09T03:38:03;99867.78;;;5.05;65.19
72428;BME280;60419;48.880;18.036;2023-05-09T03:40:52;99868.16;;;4.75;66.92
72428;BME280;60419;48.880;18.036;2023-05-09T03:43:38;99861.88;;;4.86;66.13
72428;BME280;60419;48.880;18.036;2023-05-09T03:46:23;99872.63;;;4.69;67.19
72428;BME280;60419;48.880;18.036;2023-05-09T03:49:09;99872.47;;;4.76;67.16
72428;BME280;60419;48.880;18.036;2023-05-09T03:51:54;99865.31;;;4.82;66.94
72428;BME280;60419;48.880;18.036;2023-05-09T03:54:39;99865.47;;;5.14;65.75
72428;BME280;60419;48.880;18.036;2023-05-09T03:57:25;99870.25;;;5.12;65.64
72428;BME280;60419;48.880;18.036;2023-05-09T04:00:11;99871.00;;;5.07;66.16
72428;BME280;60419;48.880;18.036;2023-05-09T04:02:57;99870.78;;;4.53;67.47
72428;BME280;60419;48.880;18.036;2023-05-09T04:05:43;99870.47;;;4.88;67.06
72428;BME280;60419;48.880;18.036;2023-05-09T04:08:28;99871.59;;;4.92;66.46
72428;BME280;60419;48.880;18.036;2023-05-09T04:11:13;99877.06;;;5.42;64.88
72428;BME280;60419;48.880;18.036;2023-05-09T04:13:59;99876.75;;;5.16;65.68
72428;BME280;60419;48.880;18.036;2023-05-09T04:16:44;99875.69;;;4.95;66.33
72428;BME280;60419;48.880;18.036;2023-05-09T04:19:30;99883.53;;;5.02;65.80
72428;BME280;60419;48.880;18.036;2023-05-09T04:22:15;99873.13;;;4.49;67.87
72428;BME280;60419;48.880;18.036;2023-05-09T04:25:01;99881.50;;;4.53;67.80
72428;BME280;60419;48.880;18.036;2023-05-09T04:27:48;99869.59;;;4.83;67.44
72428;BME280;60419;48.880;18.036;2023-05-09T04:30:33;99883.47;;;5.19;66.92
72428;BME280;60419;48.880;18.036;2023-05-09T04:33:18;99873.06;;;5.22;65.72
72428;BME280;60419;48.880;18.036;2023-05-09T04:36:05;99872.38;;;5.32;65.08
72428;BME280;60419;48.880;18.036;2023-05-09T04:38:51;99872.34;;;5.54;65.58
72428;BME280;60419;48.880;18.036;2023-05-09T04:41:36;99868.66;;;5.87;64.92
72428;BME280;60419;48.880;18.036;2023-05-09T04:44:22;99842.16;;;5.91;62.58
72428;BME280;60419;48.880;18.036;2023-05-09T04:47:08;99879.28;;;6.36;62.09
72428;BME280;60419;48.880;18.036;2023-05-09T04:49:54;99879.78;;;6.71;60.96
72428;BME280;60419;48.880;18.036;2023-05-09T04:52:39;99870.50;;;6.46;61.59
72428;BME280;60419;48.880;18.036;2023-05-09T04:55:25;99867.34;;;6.54;60.56
72428;BME280;60419;48.880;18.036;2023-05-09T04:58:10;99875.53;;;6.75;60.91
72428;BME280;60419;48.880;18.036;2023-05-09T05:00:55;99872.44;;;6.56;62.61
72428;BME280;60419;48.880;18.036;2023-05-09T05:03:41;99876.75;;;6.57;63.22
72428;BME280;60419;48.880;18.036;2023-05-09T05:06:26;99880.31;;;6.30;64.45
72428;BME280;60419;48.880;18.036;2023-05-09T05:09:12;99873.31;;;5.97;65.54
72428;BME280;60419;48.880;18.036;2023-05-09T05:11:57;99871.25;;;6.04;66.13
72428;BME280;60419;48.880;18.036;2023-05-09T05:14:43;99868.91;;;6.50;63.86
72428;BME280;60419;48.880;18.036;2023-05-09T05:17:28;99870.44;;;6.78;63.08
72428;BME280;60419;48.880;18.036;2023-05-09T05:20:13;99875.84;;;6.41;65.12
72428;BME280;60419;48.880;18.036;2023-05-09T05:22:59;99859.25;;;7.02;62.62
72428;BME280;60419;48.880;18.036;2023-05-09T05:25:44;99858.06;;;7.35;60.42
72428;BME280;60419;48.880;18.036;2023-05-09T05:28:30;99857.31;;;6.44;60.76
72428;BME280;60419;48.880;18.036;2023-05-09T05:31:15;99862.88;;;6.00;62.81
72428;BME280;60419;48.880;18.036;2023-05-09T05:34:00;99861.09;;;5.30;64.93
72428;BME280;60419;48.880;18.036;2023-05-09T05:36:46;99856.88;;;6.20;62.54
72428;BME280;60419;48.880;18.036;2023-05-09T05:39:31;99867.16;;;6.71;61.31
72428;BME280;60419;48.880;18.036;2023-05-09T05:42:17;99863.94;;;7.22;59.73
72428;BME280;60419;48.880;18.036;2023-05-09T05:45:02;99864.63;;;7.80;58.94
72428;BME280;60419;48.880;18.036;2023-05-09T05:47:50;99857.97;;;7.15;58.73
72428;BME280;60419;48.880;18.036;2023-05-09T05:50:36;99854.56;;;5.97;63.45
72428;BME280;60419;48.880;18.036;2023-05-09T05:53:21;99858.72;;;7.00;59.66
72428;BME280;60419;48.880;18.036;2023-05-09T05:56:07;99853.88;;;7.75;58.46
72428;BME280;60419;48.880;18.036;2023-05-09T05:58:52;99856.16;;;7.36;58.36
72428;BME280;60419;48.880;18.036;2023-05-09T06:01:38;99862.75;;;6.55;60.39
72428;BME280;60419;48.880;18.036;2023-05-09T06:04:23;99856.28;;;6.51;61.31
72428;BME280;60419;48.880;18.036;2023-05-09T06:07:09;99822.03;;;7.36;58.54
72428;BME280;60419;48.880;18.036;2023-05-09T06:09:55;99852.25;;;8.40;56.75
72428;BME280;60419;48.880;18.036;2023-05-09T06:12:41;99854.03;;;9.01;55.77
72428;BME280;60419;48.880;18.036;2023-05-09T06:15:26;99839.91;;;9.25;54.57
72428;BME280;60419;48.880;18.036;2023-05-09T06:18:12;99847.44;;;8.32;55.89
72428;BME280;60419;48.880;18.036;2023-05-09T06:20:57;99846.09;;;8.40;56.08
72428;BME280;60419;48.880;18.036;2023-05-09T06:23:43;99838.50;;;7.50;59.13
72428;BME280;60419;48.880;18.036;2023-05-09T06:26:28;99841.19;;;7.55;58.64
72428;BME280;60419;48.880;18.036;2023-05-09T06:29:14;99842.28;;;7.64;57.76
72428;BME280;60419;48.880;18.036;2023-05-09T06:31:59;99828.59;;;7.66;57.15
72428;BME280;60419;48.880;18.036;2023-05-09T06:34:45;99828.31;;;7.72;57.79
72428;BME280;60419;48.880;18.036;2023-05-09T06:37:33;99825.66;;;7.83;58.08
72428;BME280;60419;48.880;18.036;2023-05-09T06:40:18;99808.97;;;7.91;57.21
72428;BME280;60419;48.880;18.036;2023-05-09T06:43:04;99832.38;;;7.80;55.49
72428;BME280;60419;48.880;18.036;2023-05-09T06:45:49;99832.91;;;7.77;56.31
72428;BME280;60419;48.880;18.036;2023-05-09T06:48:35;99827.81;;;8.16;55.24
72428;BME280;60419;48.880;18.036;2023-05-09T06:51:20;99833.97;;;8.32;54.68
72428;BME280;60419;48.880;18.036;2023-05-09T06:54:05;99821.63;;;8.06;53.80
72428;BME280;60419;48.880;18.036;2023-05-09T06:56:51;99831.19;;;8.78;52.79
72428;BME280;60419;48.880;18.036;2023-05-09T06:59:36;99828.44;;;8.99;51.91
72428;BME280;60419;48.880;18.036;2023-05-09T07:02:22;99811.09;;;9.15;51.83
72428;BME280;60419;48.880;18.036;2023-05-09T07:05:08;99815.97;;;9.13;52.81
72428;BME280;60419;48.880;18.036;2023-05-09T07:07:54;99796.16;;;9.43;51.51
72428;BME280;60419;48.880;18.036;2023-05-09T07:10:39;99810.91;;;10.25;49.21
72428;BME280;60419;48.880;18.036;2023-05-09T07:13:24;99798.66;;;10.61;49.76
72428;BME280;60419;48.880;18.036;2023-05-09T07:16:10;99802.94;;;10.38;49.04
72428;BME280;60419;48.880;18.036;2023-05-09T07:18:55;99805.09;;;9.78;49.98
72428;BME280;60419;48.880;18.036;2023-05-09T07:21:41;99800.16;;;9.90;49.81
72428;BME280;60419;48.880;18.036;2023-05-09T07:24:27;99797.78;;;10.13;49.93
72428;BME280;60419;48.880;18.036;2023-05-09T07:27:12;99787.97;;;10.51;49.42
72428;BME280;60419;48.880;18.036;2023-05-09T07:29:58;99789.97;;;10.41;49.30
72428;BME280;60419;48.880;18.036;2023-05-09T07:32:43;99794.72;;;10.25;49.22
72428;BME280;60419;48.880;18.036;2023-05-09T07:35:28;99789.19;;;11.31;48.01
72428;BME280;60419;48.880;18.036;2023-05-09T07:38:14;99779.94;;;12.03;46.02
72428;BME280;60419;48.880;18.036;2023-05-09T07:40:59;99771.66;;;12.13;44.62
72428;BME280;60419;48.880;18.036;2023-05-09T07:43:45;99764.13;;;12.24;43.90
72428;BME280;60419;48.880;18.036;2023-05-09T07:46:30;99768.78;;;13.06;42.52
72428;BME280;60419;48.880;18.036;2023-05-09T07:49:16;99757.13;;;13.56;41.82
72428;BME280;60419;48.880;18.036;2023-05-09T07:52:01;99765.56;;;13.04;44.38
72428;BME280;60419;48.880;18.036;2023-05-09T07:54:46;99764.28;;;13.38;42.49
72428;BME280;60419;48.880;18.036;2023-05-09T07:57:32;99765.06;;;13.16;41.31
72428;BME280;60419;48.880;18.036;2023-05-09T08:00:18;99769.91;;;13.41;41.03
72428;BME280;60419;48.880;18.036;2023-05-09T08:03:07;99760.50;;;13.25;41.87
72428;BME280;60419;48.880;18.036;2023-05-09T08:05:53;99757.28;;;12.45;42.65
72428;BME280;60419;48.880;18.036;2023-05-09T08:08:42;99758.00;;;12.04;43.85
72428;BME280;60419;48.880;18.036;2023-05-09T08:11:27;99740.13;;;12.64;42.88
72428;BME280;60419;48.880;18.036;2023-05-09T08:14:13;99733.59;;;13.15;41.20
72428;BME280;60419;48.880;18.036;2023-05-09T08:16:58;99737.03;;;13.43;41.44
72428;BME280;60419;48.880;18.036;2023-05-09T08:19:44;99734.16;;;13.26;40.33
72428;BME280;60419;48.880;18.036;2023-05-09T08:22:29;99735.31;;;13.47;41.20
72428;BME280;60419;48.880;18.036;2023-05-09T08:25:14;99725.41;;;13.65;40.39
72428;BME280;60419;48.880;18.036;2023-05-09T08:28:02;99728.63;;;13.67;39.24
72428;BME280;60419;48.880;18.036;2023-05-09T08:30:47;99739.63;;;13.93;38.65
72428;BME280;60419;48.880;18.036;2023-05-09T08:33:33;99726.00;;;13.39;39.75
72428;BME280;60419;48.880;18.036;2023-05-09T08:36:18;99723.31;;;13.26;39.84
72428;BME280;60419;48.880;18.036;2023-05-09T08:39:03;99731.81;;;13.69;39.68
72428;BME280;60419;48.880;18.036;2023-05-09T08:41:49;99726.56;;;14.35;39.45
72428;BME280;60419;48.880;18.036;2023-05-09T08:44:35;99723.75;;;14.09;39.42
72428;BME280;60419;48.880;18.036;2023-05-09T08:47:20;99720.03;;;13.74;38.94
72428;BME280;60419;48.880;18.036;2023-05-09T08:50:08;99727.81;;;14.20;38.87
72428;BME280;60419;48.880;18.036;2023-05-09T08:52:54;99688.25;;;13.74;38.52
72428;BME280;60419;48.880;18.036;2023-05-09T08:55:40;99701.72;;;14.10;38.73
72428;BME280;60419;48.880;18.036;2023-05-09T08:58:26;99711.59;;;14.46;37.84
72428;BME280;60419;48.880;18.036;2023-05-09T09:01:12;99709.47;;;14.35;38.41
72428;BME280;60419;48.880;18.036;2023-05-09T09:03:59;99706.75;;;13.95;40.49
72428;BME280;60419;48.880;18.036;2023-05-09T09:06:45;99704.69;;;14.31;40.58
72428;BME280;60419;48.880;18.036;2023-05-09T09:09:32;99705.19;;;14.02;40.15
72428;BME280;60419;48.880;18.036;2023-05-09T09:12:21;99708.53;;;14.39;39.61
72428;BME280;60419;48.880;18.036;2023-05-09T09:15:09;99699.56;;;14.70;38.66
72428;BME280;60419;48.880;18.036;2023-05-09T09:18:04;99692.69;;;14.90;38.32
72428;BME280;60419;48.880;18.036;2023-05-09T09:20:54;99692.38;;;14.91;37.55
72428;BME280;60419;48.880;18.036;2023-05-09T09:23:42;99693.22;;;14.52;38.91
72428;BME280;60419;48.880;18.036;2023-05-09T09:26:27;99694.97;;;15.14;38.30
72428;BME280;60419;48.880;18.036;2023-05-09T09:29:16;99686.16;;;14.42;39.35
72428;BME280;60419;48.880;18.036;2023-05-09T09:32:04;99681.31;;;14.79;37.66
72428;BME280;60419;48.880;18.036;2023-05-09T09:34:50;99673.03;;;15.19;38.92
72428;BME280;60419;48.880;18.036;2023-05-09T09:37:37;99676.38;;;15.25;37.81
72428;BME280;60419;48.880;18.036;2023-05-09T09:40:24;99675.75;;;15.02;38.33
72428;BME280;60419;48.880;18.036;2023-05-09T09:43:09;99677.34;;;14.94;39.40
72428;BME280;60419;48.880;18.036;2023-05-09T09:45:55;99681.34;;;15.14;39.28
72428;BME280;60419;48.880;18.036;2023-05-09T09:48:45;99661.19;;;15.32;38.29
72428;BME280;60419;48.880;18.036;2023-05-09T09:51:35;99662.63;;;15.12;37.89
72428;BME280;60419;48.880;18.036;2023-05-09T09:54:21;99665.25;;;14.60;39.21
72428;BME280;60419;48.880;18.036;2023-05-09T09:57:06;99660.22;;;14.93;38.46
72428;BME280;60419;48.880;18.036;2023-05-09T09:59:58;99665.97;;;15.35;36.94
72428;BME280;60419;48.880;18.036;2023-05-09T10:02:54;99670.47;;;15.23;37.53
72428;BME280;60419;48.880;18.036;2023-05-09T10:05:40;99646.34;;;15.68;36.65
72428;BME280;60419;48.880;18.036;2023-05-09T10:08:26;99650.56;;;15.57;35.69
72428;BME280;60419;48.880;18.036;2023-05-09T10:11:11;99652.97;;;15.50;36.92
72428;BME280;60419;48.880;18.036;2023-05-09T10:13:57;99646.41;;;15.51;36.72
72428;BME280;60419;48.880;18.036;2023-05-09T10:16:42;99646.94;;;15.27;36.78
72428;BME280;60419;48.880;18.036;2023-05-09T10:19:28;99651.03;;;15.59;37.27
72428;BME280;60419;48.880;18.036;2023-05-09T10:22:15;99645.56;;;16.15;36.92
72428;BME280;60419;48.880;18.036;2023-05-09T10:25:04;99634.53;;;15.81;35.08
72428;BME280;60419;48.880;18.036;2023-05-09T10:27:52;99631.22;;;15.97;35.69
72428;BME280;60419;48.880;18.036;2023-05-09T10:30:55;99627.19;;;15.56;37.09
72428;BME280;60419;48.880;18.036;2023-05-09T10:33:48;99624.88;;;15.75;36.57
72428;BME280;60419;48.880;18.036;2023-05-09T10:36:34;99636.09;;;16.21;35.84
72428;BME280;60419;48.880;18.036;2023-05-09T10:39:21;99626.44;;;16.53;36.04
72428;BME280;60419;48.880;18.036;2023-05-09T10:42:07;99572.28;;;15.92;35.71
72428;BME280;60419;48.880;18.036;2023-05-09T10:44:53;99628.31;;;16.61;34.81
72428;BME280;60419;48.880;18.036;2023-05-09T10:47:40;99614.53;;;16.37;34.67
72428;BME280;60419;48.880;18.036;2023-05-09T10:50:26;99620.59;;;16.63;36.24
72428;BME280;60419;48.880;18.036;2023-05-09T10:53:12;99617.25;;;16.87;34.46
72428;BME280;60419;48.880;18.036;2023-05-09T10:56:06;99617.50;;;16.74;34.51
72428;BME280;60419;48.880;18.036;2023-05-09T10:58:51;99602.53;;;15.99;35.60
72428;BME280;60419;48.880;18.036;2023-05-09T11:01:37;99614.00;;;16.14;37.33
72428;BME280;60419;48.880;18.036;2023-05-09T11:04:23;99602.84;;;16.57;36.01
72428;BME280;60419;48.880;18.036;2023-05-09T11:07:29;99602.44;;;16.67;35.17
72428;BME280;60419;48.880;18.036;2023-05-09T11:10:16;99591.53;;;16.67;34.82
72428;BME280;60419;48.880;18.036;2023-05-09T11:13:02;99593.13;;;16.47;34.02
72428;BME280;60419;48.880;18.036;2023-05-09T11:18:50;99594.13;;;17.39;34.17
72428;BME280;60419;48.880;18.036;2023-05-09T11:21:36;99587.00;;;17.71;34.84
72428;BME280;60419;48.880;18.036;2023-05-09T11:24:21;99569.88;;;17.37;33.83
72428;BME280;60419;48.880;18.036;2023-05-09T11:27:24;99560.84;;;17.25;35.14
72428;BME280;60419;48.880;18.036;2023-05-09T11:30:15;99581.38;;;17.31;34.53
72428;BME280;60419;48.880;18.036;2023-05-09T11:33:01;99571.75;;;17.12;34.36
72428;BME280;60419;48.880;18.036;2023-05-09T11:35:46;99568.28;;;17.36;32.69
72428;BME280;60419;48.880;18.036;2023-05-09T11:38:42;99552.78;;;17.98;33.11
72428;BME280;60419;48.880;18.036;2023-05-09T11:41:29;99566.41;;;17.16;33.17
72428;BME280;60419;48.880;18.036;2023-05-09T11:44:16;99564.47;;;17.17;33.00
72428;BME280;60419;48.880;18.036;2023-05-09T11:47:03;99574.28;;;17.30;32.95
72428;BME280;60419;48.880;18.036;2023-05-09T11:49:48;99562.78;;;17.24;32.98
72428;BME280;60419;48.880;18.036;2023-05-09T11:52:34;99552.50;;;17.54;31.55
72428;BME280;60419;48.880;18.036;2023-05-09T11:55:21;99549.28;;;17.40;33.31
72428;BME280;60419;48.880;18.036;2023-05-09T11:58:06;99558.59;;;17.85;32.46
72428;BME280;60419;48.880;18.036;2023-05-09T12:00:53;99551.16;;;17.73;32.64
72428;BME280;60419;48.880;18.036;2023-05-09T12:03:43;99550.28;;;17.81;31.84
72428;BME280;60419;48.880;18.036;2023-05-09T12:06:29;99548.78;;;17.59;32.09
72428;BME280;60419;48.880;18.036;2023-05-09T12:09:14;99552.03;;;17.28;32.59
72428;BME280;60419;48.880;18.036;2023-05-09T12:12:00;99525.09;;;17.63;33.27
72428;BME280;60419;48.880;18.036;2023-05-09T12:14:47;99550.16;;;18.02;33.83
72428;BME280;60419;48.880;18.036;2023-05-09T12:17:33;99530.09;;;17.73;32.96
72428;BME280;60419;48.880;18.036;2023-05-09T12:20:19;99535.91;;;17.72;32.19
72428;BME280;60419;48.880;18.036;2023-05-09T12:23:04;99533.53;;;18.07;31.89
72428;BME280;60419;48.880;18.036;2023-05-09T12:25:55;99519.22;;;17.98;31.22
72428;BME280;60419;48.880;18.036;2023-05-09T12:28:41;99523.63;;;18.55;31.54
72428;BME280;60419;48.880;18.036;2023-05-09T12:31:27;99524.06;;;18.57;31.97
72428;BME280;60419;48.880;18.036;2023-05-09T12:34:13;99521.16;;;18.50;31.41
72428;BME280;60419;48.880;18.036;2023-05-09T12:36:59;99509.44;;;18.78;30.35
72428;BME280;60419;48.880;18.036;2023-05-09T12:40:01;99514.63;;;17.90;32.44
72428;BME280;60419;48.880;18.036;2023-05-09T12:42:48;99504.78;;;18.66;31.06
72428;BME280;60419;48.880;18.036;2023-05-09T12:45:34;99502.28;;;18.33;29.78
72428;BME280;60419;48.880;18.036;2023-05-09T12:48:21;99496.81;;;18.33;30.28
72428;BME280;60419;48.880;18.036;2023-05-09T12:51:07;99501.34;;;18.29;30.92
72428;BME280;60419;48.880;18.036;2023-05-09T12:53:53;99501.25;;;18.25;31.97
72428;BME280;60419;48.880;18.036;2023-05-09T12:56:38;99473.72;;;18.06;31.31
72428;BME280;60419;48.880;18.036;2023-05-09T12:59:27;99485.56;;;19.06;30.69
72428;BME280;60419;48.880;18.036;2023-05-09T13:02:13;99494.66;;;19.90;42.87
72428;BME280;60419;48.880;18.036;2023-05-09T13:05:18;99482.31;;;19.32;31.41
72428;BME280;60419;48.880;18.036;2023-05-09T13:08:05;99481.25;;;19.21;29.54
72428;BME280;60419;48.880;18.036;2023-05-09T13:10:50;99452.63;;;18.87;29.96
72428;BME280;60419;48.880;18.036;2023-05-09T13:13:36;99471.78;;;18.87;29.76
72428;BME280;60419;48.880;18.036;2023-05-09T13:16:22;99470.25;;;18.61;29.64
72428;BME280;60419;48.880;18.036;2023-05-09T13:19:07;99463.31;;;18.92;29.79
72428;BME280;60419;48.880;18.036;2023-05-09T13:21:54;99457.66;;;18.16;30.74
72428;BME280;60419;48.880;18.036;2023-05-09T13:24:39;99462.75;;;18.86;30.65
72428;BME280;60419;48.880;18.036;2023-05-09T13:27:25;99472.66;;;19.07;31.21
72428;BME280;60419;48.880;18.036;2023-05-09T13:30:12;99467.56;;;19.05;31.97
72428;BME280;60419;48.880;18.036;2023-05-09T13:32:59;99471.94;;;18.38;35.61
72428;BME280;60419;48.880;18.036;2023-05-09T13:35:44;99463.44;;;18.27;36.14
72428;BME280;60419;48.880;18.036;2023-05-09T13:38:30;99466.56;;;18.98;31.74
72428;BME280;60419;48.880;18.036;2023-05-09T13:41:16;99447.03;;;18.99;32.08
72428;BME280;60419;48.880;18.036;2023-05-09T13:44:05;99451.69;;;18.55;31.35
72428;BME280;60419;48.880;18.036;2023-05-09T13:46:51;99445.16;;;18.72;30.91
72428;BME280;60419;48.880;18.036;2023-05-09T13:49:36;99443.53;;;19.15;30.55
72428;BME280;60419;48.880;18.036;2023-05-09T13:52:22;99434.88;;;19.13;29.74
72428;BME280;60419;48.880;18.036;2023-05-09T13:55:08;99431.41;;;19.63;29.50
72428;BME280;60419;48.880;18.036;2023-05-09T13:57:54;99429.50;;;19.00;30.24
72428;BME280;60419;48.880;18.036;2023-05-09T14:00:39;99429.69;;;19.07;30.62
72428;BME280;60419;48.880;18.036;2023-05-09T14:03:25;99427.09;;;19.15;30.64
72428;BME280;60419;48.880;18.036;2023-05-09T14:06:11;99431.78;;;19.14;30.93
72428;BME280;60419;48.880;18.036;2023-05-09T14:08:58;99405.47;;;18.94;30.95
72428;BME280;60419;48.880;18.036;2023-05-09T14:11:43;99427.34;;;18.94;30.11
72428;BME280;60419;48.880;18.036;2023-05-09T14:14:29;99414.88;;;19.44;30.13
72428;BME280;60419;48.880;18.036;2023-05-09T14:17:14;99420.94;;;19.85;30.03
72428;BME280;60419;48.880;18.036;2023-05-09T14:20:00;99409.34;;;19.91;28.47
72428;BME280;60419;48.880;18.036;2023-05-09T14:22:45;99413.22;;;19.90;29.20
72428;BME280;60419;48.880;18.036;2023-05-09T14:25:30;99411.03;;;19.80;28.26
72428;BME280;60419;48.880;18.036;2023-05-09T14:28:16;99409.44;;;19.60;28.90
72428;BME280;60419;48.880;18.036;2023-05-09T14:31:01;99406.41;;;19.65;28.09
72428;BME280;60419;48.880;18.036;2023-05-09T14:33:47;99400.75;;;19.58;28.36
72428;BME280;60419;48.880;18.036;2023-05-09T14:36:32;99399.53;;;19.55;28.95
72428;BME280;60419;48.880;18.036;2023-05-09T14:39:18;99401.03;;;19.88;28.60
72428;BME280;60419;48.880;18.036;2023-05-09T14:42:04;99404.31;;;20.52;28.39
72428;BME280;60419;48.880;18.036;2023-05-09T14:44:50;99400.34;;;20.49;27.95